Large, Pennsylvania
Current Conditions -  °F | °C
As of 4:53 PM on Monday 24 Nov 2014 (Local Time) from KAGC Reporting Station
Few Clouds Few Clouds  
Wind Chill: 63°   Ceiling: Unl
Heat Index: 63°   Visibility: 10mi
Dew Point: 37°   Wind: 29mph
Humidity: 38%   Direction: 240°WSW
Pressure: 29.56"   Gusts: 48mph
Location:  40.2958°N, 79.9241°W
Report Text: KAGC 242153Z 24025G42KT 10SM FEW065 FEW090 17/03 A2956 RMK AO2 PK WND 26042/2151 SLP011 T01720028
Loading
Personal Weather Stations






























Interactive Weather Map New forecast layout! Learn more

10-Day Weather Forecast

Advertisements
Track Severe Weather on mobile